Time;durP1;ratioP1;P1;durP2;ratioP2;P2;SDS_P1;SDS_P2;PMS_P1;PMS_P2;Temp;Humidity;BMP_temperature;BMP_pressure;BME280_temperature;BME280_humidity;BME280_pressure;Samples;Min_cycle;Max_cycle;Signal;HPM_P1;HPM_P2
2022/07/16 00:02:33;;;;;;;4.30;2.35;;;16.90;81.70;;;;;;5064512;28;20039;-78
2022/07/16 00:04:59;;;;;;;9.50;4.43;;;16.90;81.80;;;;;;5073955;28;20032;-78
2022/07/16 00:07:24;;;;;;;17.25;6.90;;;16.90;81.90;;;;;;5084246;28;20438;-79
2022/07/16 00:09:50;;;;;;;18.75;6.78;;;16.80;81.90;;;;;;5071530;28;20034;-79
2022/07/16 00:12:15;;;;;;;10.85;5.30;;;16.80;81.90;;;;;;5057461;28;20052;-79
2022/07/16 00:14:41;;;;;;;13.43;5.18;;;16.80;82.20;;;;;;5053234;28;20028;-78
2022/07/16 00:17:06;;;;;;;10.48;4.75;;;16.90;82.30;;;;;;5073019;28;20056;-78
2022/07/16 00:19:32;;;;;;;8.25;4.10;;;16.80;82.40;;;;;;5069721;28;20036;-81
2022/07/16 00:21:58;;;;;;;4.40;1.90;;;16.90;82.60;;;;;;5086696;28;20036;-81
2022/07/16 00:24:24;;;;;;;4.72;1.95;;;16.80;82.30;;;;;;5072522;28;20040;-78
2022/07/16 00:26:50;;;;;;;2.47;1.30;;;16.80;82.70;;;;;;5046422;28;20123;-78
2022/07/16 00:29:18;;;;;;;5.32;2.33;;;16.90;82.70;;;;;;5055987;28;20135;-78
2022/07/16 00:31:47;;;;;;;3.58;1.48;;;16.90;82.60;;;;;;5065348;28;20714;-79
2022/07/16 00:34:14;;;;;;;4.90;1.40;;;17.00;82.80;;;;;;5066825;28;20025;-78
2022/07/16 00:36:40;;;;;;;3.47;1.30;;;17.00;82.70;;;;;;5059904;28;20037;-79
2022/07/16 00:39:07;;;;;;;4.55;1.00;;;17.00;82.70;;;;;;5060023;28;20367;-79
2022/07/16 00:41:34;;;;;;;7.00;1.17;;;17.00;82.60;;;;;;5067231;28;20518;-78
2022/07/16 00:44:02;;;;;;;1.70;1.10;;;17.10;82.40;;;;;;5070765;28;20052;-79
2022/07/16 00:46:29;;;;;;;1.10;0.40;;;17.10;82.40;;;;;;5055594;28;20470;-78
2022/07/16 00:48:55;;;;;;;4.00;0.65;;;17.10;82.70;;;;;;5058146;28;20037;-78
2022/07/16 00:51:22;;;;;;;2.92;0.88;;;17.10;82.30;;;;;;5063076;28;20036;-77
2022/07/16 00:53:49;;;;;;;2.17;0.50;;;17.20;82.60;;;;;;5066689;28;20016;-77
2022/07/16 00:56:15;;;;;;;3.13;0.52;;;17.20;82.40;;;;;;5064626;28;20067;-80
2022/07/16 00:58:43;;;;;;;2.20;0.70;;;17.20;82.10;;;;;;5071439;28;20498;-78
2022/07/16 01:01:10;;;;;;;2.25;1.05;;;17.30;82.20;;;;;;5050783;28;20575;-79
2022/07/16 01:03:37;;;;;;;1.02;0.40;;;17.30;82.30;;;;;;5059312;28;20459;-77
2022/07/16 01:06:04;;;;;;;1.92;0.50;;;17.30;82.10;;;;;;5051706;28;20111;-77
2022/07/16 01:08:29;;;;;;;2.15;0.68;;;17.30;82.10;;;;;;5057305;28;20068;-79
2022/07/16 01:10:56;;;;;;;1.67;0.63;;;17.30;81.90;;;;;;5057418;28;20390;-77
2022/07/16 01:13:23;;;;;;;1.42;0.60;;;17.30;82.10;;;;;;5051031;28;20032;-80
2022/07/16 01:15:48;;;;;;;2.38;0.60;;;17.30;82.30;;;;;;5068226;28;20075;-78
2022/07/16 01:18:14;;;;;;;1.40;0.60;;;17.30;82.70;;;;;;5072553;28;20040;-78
2022/07/16 01:20:40;;;;;;;0.90;0.60;;;17.30;82.80;;;;;;5046663;28;20036;-79
2022/07/16 01:23:06;;;;;;;1.77;0.50;;;17.30;82.80;;;;;;5086368;28;20029;-79
2022/07/16 01:25:32;;;;;;;3.28;0.82;;;17.30;82.70;;;;;;5052804;28;20094;-78
2022/07/16 01:27:57;;;;;;;2.05;0.50;;;17.30;82.90;;;;;;5072110;28;20025;-78
2022/07/16 01:30:23;;;;;;;1.02;0.30;;;17.30;82.90;;;;;;5066487;28;20028;-82
2022/07/16 01:32:48;;;;;;;1.88;0.40;;;17.20;82.80;;;;;;5062128;28;20044;-78
2022/07/16 01:35:14;;;;;;;2.53;0.57;;;17.20;83.00;;;;;;5066807;28;20024;-78
2022/07/16 01:37:39;;;;;;;3.30;0.43;;;17.20;83.00;;;;;;5070957;28;20036;-80
2022/07/16 01:40:05;;;;;;;1.77;0.70;;;17.20;83.10;;;;;;5065986;28;20068;-81
2022/07/16 01:42:31;;;;;;;1.98;0.55;;;17.10;83.30;;;;;;5071733;28;20482;-78
2022/07/16 01:44:56;;;;;;;0.88;0.40;;;17.20;83.40;;;;;;5062079;28;20029;-78
2022/07/16 01:47:22;;;;;;;3.75;0.50;;;17.20;83.40;;;;;;5044588;28;20028;-80
2022/07/16 01:49:48;;;;;;;2.83;0.63;;;17.20;83.60;;;;;;5067164;28;20037;-78
2022/07/16 01:52:17;;;;;;;3.03;0.70;;;17.20;83.80;;;;;;5083079;28;20032;-77
2022/07/16 01:54:46;;;;;;;7.57;0.95;;;17.10;84.10;;;;;;5069603;28;20469;-78
2022/07/16 01:57:12;;;;;;;1.63;0.50;;;17.10;84.50;;;;;;5071057;28;20055;-78
2022/07/16 01:59:38;;;;;;;2.22;0.52;;;17.20;84.80;;;;;;5066614;28;20043;-77
2022/07/16 02:02:04;;;;;;;3.00;0.70;;;17.10;85.10;;;;;;5061543;28;20067;-78
2022/07/16 02:04:30;;;;;;;3.13;0.73;;;17.10;85.50;;;;;;5079207;28;20086;-81
2022/07/16 02:06:55;;;;;;;7.13;0.80;;;17.10;85.80;;;;;;5044325;28;20025;-78
2022/07/16 02:09:21;;;;;;;7.55;0.90;;;17.10;86.60;;;;;;5056446;28;20182;-77
2022/07/16 02:11:47;;;;;;;2.50;0.70;;;17.10;87.30;;;;;;5046464;28;20059;-78
2022/07/16 02:14:12;;;;;;;3.10;0.70;;;17.10;87.60;;;;;;5054939;28;20116;-78
2022/07/16 02:16:38;;;;;;;1.90;0.60;;;17.00;88.00;;;;;;5070545;28;20032;-77
2022/07/16 02:19:03;;;;;;;3.30;0.52;;;17.00;88.20;;;;;;5052928;28;20463;-77
2022/07/16 02:21:30;;;;;;;3.20;0.90;;;17.00;88.00;;;;;;5063356;28;20029;-80
2022/07/16 02:23:56;;;;;;;1.40;0.40;;;17.00;88.70;;;;;;5070684;28;20031;-78
2022/07/16 02:26:21;;;;;;;2.83;0.73;;;16.90;88.70;;;;;;5057729;28;20029;-77
2022/07/16 02:28:47;;;;;;;4.10;0.70;;;16.90;88.80;;;;;;5086852;28;20085;-78
2022/07/16 02:31:12;;;;;;;1.90;0.60;;;16.90;89.20;;;;;;5068397;28;20028;-77
2022/07/16 02:33:38;;;;;;;1.67;0.50;;;16.80;88.60;;;;;;5067911;28;20484;-77
2022/07/16 02:36:03;;;;;;;3.75;0.90;;;16.80;88.60;;;;;;5065352;28;20054;-79
2022/07/16 02:38:29;;;;;;;0.77;0.57;;;16.80;88.80;;;;;;5060218;28;20043;-77
2022/07/16 02:40:54;;;;;;;2.88;0.77;;;16.80;88.70;;;;;;5063176;28;20469;-82
2022/07/16 02:43:20;;;;;;;6.00;0.93;;;16.80;88.90;;;;;;5061129;28;20037;-77
2022/07/16 02:45:45;;;;;;;3.22;1.23;;;16.90;88.80;;;;;;5079800;28;20036;-77
2022/07/16 02:48:11;;;;;;;2.63;0.60;;;16.90;88.70;;;;;;5061873;28;20112;-77
2022/07/16 02:50:38;;;;;;;5.00;0.75;;;16.90;88.70;;;;;;5067531;28;20074;-80
2022/07/16 02:53:03;;;;;;;12.35;0.90;;;16.90;88.90;;;;;;5067505;28;20427;-79
2022/07/16 02:55:29;;;;;;;0.98;0.45;;;16.90;88.70;;;;;;5053570;28;20036;-77
2022/07/16 02:57:54;;;;;;;4.53;1.00;;;16.90;88.70;;;;;;5070794;28;20044;-78
2022/07/16 03:00:21;;;;;;;0.90;0.45;;;17.00;89.00;;;;;;5066625;28;20066;-77
2022/07/16 03:02:47;;;;;;;2.33;0.70;;;16.90;89.10;;;;;;5057138;28;20043;-78
2022/07/16 03:05:13;;;;;;;1.15;0.32;;;17.00;88.10;;;;;;5046754;28;20025;-77
2022/07/16 03:07:39;;;;;;;4.03;0.55;;;17.00;88.30;;;;;;5060289;28;20378;-77
2022/07/16 03:10:06;;;;;;;2.38;0.60;;;17.00;88.40;;;;;;5067452;28;20044;-78
2022/07/16 03:12:32;;;;;;;3.88;0.65;;;17.00;88.50;;;;;;5057536;28;20064;-78
2022/07/16 03:14:58;;;;;;;9.93;0.55;;;17.00;88.50;;;;;;5068803;28;20063;-77
2022/07/16 03:17:24;;;;;;;2.47;0.93;;;17.00;88.60;;;;;;5055803;28;20086;-77
2022/07/16 03:19:49;;;;;;;3.53;0.57;;;17.10;88.70;;;;;;5069989;28;20032;-77
2022/07/16 03:22:16;;;;;;;6.50;0.80;;;17.00;88.70;;;;;;5041733;28;20029;-77
2022/07/16 03:24:41;;;;;;;3.83;0.52;;;17.00;88.80;;;;;;5064551;28;20032;-79
2022/07/16 03:27:07;;;;;;;3.72;0.77;;;17.00;88.60;;;;;;5061512;28;20120;-81
2022/07/16 03:29:32;;;;;;;1.42;0.55;;;17.00;88.70;;;;;;5066730;28;20040;-77
2022/07/16 03:31:58;;;;;;;5.93;0.63;;;17.10;88.70;;;;;;5067574;28;20032;-81
2022/07/16 03:34:23;;;;;;;1.00;0.40;;;17.00;88.10;;;;;;5046709;28;20025;-77
2022/07/16 03:36:49;;;;;;;2.85;0.65;;;17.00;88.30;;;;;;5069381;28;20059;-77
2022/07/16 03:39:14;;;;;;;4.65;0.65;;;17.10;88.20;;;;;;5064384;28;20047;-78
2022/07/16 03:41:40;;;;;;;5.35;0.75;;;17.00;87.30;;;;;;5060068;28;20037;-80
2022/07/16 03:44:07;;;;;;;1.58;0.90;;;17.00;87.50;;;;;;5042209;28;20025;-82
2022/07/16 03:46:34;;;;;;;1.30;0.40;;;17.00;87.50;;;;;;5041552;28;20033;-77
2022/07/16 03:49:01;;;;;;;0.85;0.50;;;17.00;88.20;;;;;;5070561;28;20122;-77
2022/07/16 03:51:27;;;;;;;3.70;0.90;;;17.00;88.00;;;;;;5051624;28;20052;-77
2022/07/16 03:53:52;;;;;;;5.53;0.73;;;17.00;87.50;;;;;;5047294;28;20466;-77
2022/07/16 03:56:17;;;;;;;4.18;0.50;;;17.00;87.30;;;;;;5066767;28;20079;-77
2022/07/16 03:58:43;;;;;;;1.80;0.68;;;17.00;86.90;;;;;;5065283;28;20050;-80
2022/07/16 04:01:09;;;;;;;1.67;0.63;;;17.00;87.10;;;;;;5067931;28;20466;-78
2022/07/16 04:03:36;;;;;;;2.42;0.73;;;17.00;86.90;;;;;;5064784;28;20048;-78
2022/07/16 04:06:02;;;;;;;3.13;0.50;;;17.00;86.50;;;;;;5052692;28;20029;-81
2022/07/16 04:08:28;;;;;;;2.10;0.73;;;17.00;86.90;;;;;;5037282;28;20029;-78
2022/07/16 04:10:53;;;;;;;1.67;0.60;;;17.00;85.90;;;;;;5057564;28;20058;-83
2022/07/16 04:13:19;;;;;;;2.35;0.65;;;17.00;86.10;;;;;;5066244;28;20033;-80
2022/07/16 04:15:45;;;;;;;3.55;0.80;;;17.00;86.30;;;;;;5039873;28;20024;-78
2022/07/16 04:18:10;;;;;;;1.38;0.40;;;17.10;85.80;;;;;;5055697;28;20029;-79
2022/07/16 04:20:36;;;;;;;4.45;0.60;;;17.10;85.70;;;;;;5070310;28;20056;-82
2022/07/16 04:23:02;;;;;;;8.75;0.90;;;17.10;85.50;;;;;;5039028;28;20036;-78
2022/07/16 04:25:28;;;;;;;1.67;0.70;;;17.10;85.40;;;;;;5042369;28;20434;-78
2022/07/16 04:27:54;;;;;;;1.98;0.70;;;17.10;85.30;;;;;;5059831;28;20646;-79
2022/07/16 04:30:19;;;;;;;3.15;0.60;;;17.10;85.00;;;;;;5070390;28;20032;-79
2022/07/16 04:32:45;;;;;;;1.25;0.70;;;17.10;85.10;;;;;;5048974;28;20501;-82
2022/07/16 04:35:12;;;;;;;2.42;0.60;;;17.10;85.80;;;;;;5040312;28;20469;-83
2022/07/16 04:37:38;;;;;;;1.58;0.70;;;17.10;85.20;;;;;;5054362;28;20039;-77
2022/07/16 04:40:05;;;;;;;1.50;0.60;;;17.10;85.60;;;;;;5055144;28;20040;-79
2022/07/16 04:42:31;;;;;;;2.10;0.77;;;17.10;85.60;;;;;;5039140;28;20043;-79
2022/07/16 04:44:57;;;;;;;4.80;1.17;;;17.10;85.90;;;;;;5066883;28;20385;-79
2022/07/16 04:47:22;;;;;;;2.47;1.25;;;17.10;85.80;;;;;;5070834;28;20032;-79
2022/07/16 04:49:48;;;;;;;3.65;0.70;;;17.10;86.50;;;;;;5069770;28;20037;-79
2022/07/16 04:52:13;;;;;;;2.67;0.70;;;17.10;86.00;;;;;;5069596;28;20549;-79
2022/07/16 04:54:39;;;;;;;5.13;0.70;;;17.00;84.90;;;;;;5053007;28;20035;-79
2022/07/16 04:57:05;;;;;;;3.58;0.77;;;17.00;86.00;;;;;;5053717;28;20622;-80
2022/07/16 04:59:30;;;;;;;4.03;0.77;;;17.00;88.00;;;;;;5049462;28;20470;-78
2022/07/16 05:02:56;;;;;;;1.45;0.70;;;17.00;90.30;;;;;;5067108;28;20128;-79
2022/07/16 05:04:44;;;;;;;3.03;0.77;;;16.90;90.40;;;;;;5066948;28;20033;-82
2022/07/16 05:07:10;;;;;;;1.83;0.68;;;16.80;90.60;;;;;;5068844;28;20031;-81
2022/07/16 05:09:35;;;;;;;10.15;1.00;;;16.80;91.60;;;;;;5050514;28;20051;-82
2022/07/16 05:12:01;;;;;;;2.63;0.50;;;16.70;91.50;;;;;;5070590;28;20044;-80
2022/07/16 05:14:27;;;;;;;4.07;0.90;;;16.60;92.10;;;;;;5070046;28;20060;-80
2022/07/16 05:16:54;;;;;;;4.88;1.00;;;16.50;92.20;;;;;;5072766;28;20429;-80
2022/07/16 05:19:20;;;;;;;6.15;0.80;;;16.50;92.80;;;;;;5069157;28;20039;-79
2022/07/16 05:21:45;;;;;;;1.67;0.57;;;16.40;92.90;;;;;;5070926;28;20031;-79
2022/07/16 05:24:11;;;;;;;2.05;0.90;;;16.40;93.40;;;;;;5050871;28;20036;-80
2022/07/16 05:26:36;;;;;;;3.45;0.82;;;16.50;93.90;;;;;;5077287;28;20047;-82
2022/07/16 05:29:02;;;;;;;3.30;0.80;;;16.50;94.10;;;;;;5068527;28;20490;-82
2022/07/16 05:31:27;;;;;;;2.72;1.08;;;16.50;94.40;;;;;;5069702;28;20090;-82
2022/07/16 05:33:53;;;;;;;2.97;1.00;;;16.60;94.60;;;;;;5070441;28;20028;-79
2022/07/16 05:36:18;;;;;;;3.53;1.05;;;16.60;94.70;;;;;;5056768;28;20030;-81
2022/07/16 05:38:44;;;;;;;2.83;1.00;;;16.70;93.80;;;;;;5088349;28;20032;-79
2022/07/16 05:41:10;;;;;;;3.70;0.85;;;16.70;93.60;;;;;;5051570;28;20337;-79
2022/07/16 05:43:35;;;;;;;2.13;0.90;;;16.70;92.90;;;;;;5070214;28;20036;-80
2022/07/16 05:46:01;;;;;;;4.03;1.25;;;16.80;91.50;;;;;;5056055;28;20117;-79
2022/07/16 05:48:26;;;;;;;4.45;0.70;;;16.80;92.00;;;;;;5067140;28;20045;-79
2022/07/16 05:50:52;;;;;;;3.22;0.80;;;16.80;92.00;;;;;;5070959;28;20047;-80
2022/07/16 05:53:17;;;;;;;4.10;1.15;;;16.90;91.90;;;;;;5066580;28;20039;-80
2022/07/16 05:55:43;;;;;;;4.03;0.60;;;16.90;91.50;;;;;;5072023;28;20036;-79
2022/07/16 05:58:08;;;;;;;1.52;0.63;;;16.90;91.60;;;;;;5064383;28;20396;-78
2022/07/16 06:00:34;;;;;;;0.68;0.45;;;17.00;90.60;;;;;;5063233;28;20033;-81
2022/07/16 06:02:59;;;;;;;3.75;0.80;;;17.10;90.90;;;;;;5065719;28;20029;-79
2022/07/16 06:05:26;;;;;;;3.85;0.80;;;17.10;91.70;;;;;;5063348;28;20102;-79
2022/07/16 06:07:52;;;;;;;1.45;0.70;;;17.20;91.20;;;;;;5068622;28;20043;-78
2022/07/16 06:10:18;;;;;;;3.45;0.80;;;17.30;90.40;;;;;;5069331;28;20119;-77
2022/07/16 06:12:44;;;;;;;1.55;0.60;;;17.40;90.50;;;;;;5070441;28;20112;-78
2022/07/16 06:15:10;;;;;;;1.10;0.47;;;17.50;90.50;;;;;;5069940;28;20082;-80
2022/07/16 06:17:37;;;;;;;1.73;0.52;;;17.50;90.20;;;;;;5069841;28;20029;-78
2022/07/16 06:20:04;;;;;;;1.80;0.60;;;17.50;89.80;;;;;;5069941;28;20068;-77
2022/07/16 06:22:29;;;;;;;1.20;0.50;;;17.60;89.00;;;;;;5071219;28;20023;-76
2022/07/16 06:24:55;;;;;;;2.75;0.90;;;17.70;90.00;;;;;;5054575;28;20036;-77
2022/07/16 06:27:20;;;;;;;2.30;0.70;;;17.80;88.40;;;;;;5070232;28;20028;-78
2022/07/16 06:29:46;;;;;;;2.20;0.65;;;17.90;90.00;;;;;;5071348;28;20097;-79
2022/07/16 06:32:11;;;;;;;2.20;0.98;;;18.00;89.70;;;;;;5070400;28;20112;-78
2022/07/16 06:34:37;;;;;;;2.15;0.60;;;18.10;88.80;;;;;;5071423;28;20033;-80
2022/07/16 06:37:02;;;;;;;2.58;0.73;;;18.20;87.90;;;;;;5052204;28;20447;-78
2022/07/16 06:39:28;;;;;;;4.78;0.85;;;18.30;87.90;;;;;;5052873;28;20078;-78
2022/07/16 06:41:53;;;;;;;1.95;0.60;;;18.30;86.80;;;;;;5052533;28;20553;-77
2022/07/16 06:44:19;;;;;;;2.00;0.52;;;18.40;85.60;;;;;;5052720;28;20029;-80
2022/07/16 06:46:44;;;;;;;1.95;0.60;;;18.40;84.60;;;;;;5051913;28;20039;-78
2022/07/16 06:49:10;;;;;;;4.20;0.63;;;18.60;85.70;;;;;;5070687;28;20116;-78
2022/07/16 06:51:36;;;;;;;2.92;0.68;;;18.60;83.20;;;;;;5070655;28;20398;-79
2022/07/16 06:54:01;;;;;;;1.88;0.95;;;18.60;83.70;;;;;;5070371;28;20037;-79
2022/07/16 06:56:27;;;;;;;1.63;0.50;;;18.60;84.10;;;;;;5052115;28;20029;-79
2022/07/16 06:58:52;;;;;;;3.75;0.55;;;18.70;83.20;;;;;;5070644;28;20524;-79
2022/07/16 07:01:18;;;;;;;2.58;1.00;;;18.70;82.50;;;;;;5070302;28;20032;-78
2022/07/16 07:03:43;;;;;;;4.57;0.73;;;18.80;83.50;;;;;;5052629;28;20016;-80
2022/07/16 07:06:08;;;;;;;1.48;0.60;;;18.90;82.10;;;;;;5051674;28;20038;-78
2022/07/16 07:08:34;;;;;;;2.60;0.57;;;18.80;82.60;;;;;;5069414;28;20047;-79
2022/07/16 07:11:00;;;;;;;2.47;0.85;;;19.00;82.70;;;;;;5052161;28;20087;-78
2022/07/16 07:13:26;;;;;;;2.63;0.55;;;19.20;83.60;;;;;;5070426;28;20518;-78
2022/07/16 07:15:52;;;;;;;3.30;0.73;;;19.30;82.40;;;;;;5051573;28;20034;-79
2022/07/16 07:18:17;;;;;;;1.88;0.52;;;19.30;82.00;;;;;;5070304;28;20104;-80
2022/07/16 07:20:43;;;;;;;1.55;0.80;;;19.50;82.40;;;;;;5070018;28;20103;-79
2022/07/16 07:23:10;;;;;;;2.20;0.60;;;19.60;81.10;;;;;;5069882;28;20075;-78
2022/07/16 07:25:36;;;;;;;2.80;0.75;;;19.70;80.50;;;;;;5051620;28;20426;-78
2022/07/16 07:28:02;;;;;;;2.83;0.63;;;19.70;80.90;;;;;;5070139;28;20102;-79
2022/07/16 07:30:28;;;;;;;2.15;0.50;;;19.70;79.80;;;;;;5070277;28;20024;-78
2022/07/16 07:32:53;;;;;;;1.83;0.50;;;19.70;80.60;;;;;;5069881;28;20145;-78
2022/07/16 07:35:19;;;;;;;3.13;0.60;;;19.70;80.20;;;;;;5069642;28;20391;-81
2022/07/16 07:37:44;;;;;;;2.58;0.68;;;19.70;79.10;;;;;;5069317;28;20098;-78
2022/07/16 07:40:10;;;;;;;4.78;0.90;;;19.70;79.60;;;;;;5051769;28;20036;-80
2022/07/16 07:42:36;;;;;;;1.75;0.50;;;19.80;80.20;;;;;;5069637;28;20032;-78
2022/07/16 07:45:02;;;;;;;2.58;0.60;;;19.90;79.40;;;;;;5052064;28;20114;-78
2022/07/16 07:47:28;;;;;;;4.85;0.68;;;20.10;80.30;;;;;;5069338;28;20033;-78
2022/07/16 07:49:53;;;;;;;3.08;0.60;;;20.20;77.90;;;;;;5052087;28;20085;-80
2022/07/16 07:52:18;;;;;;;2.80;0.45;;;20.30;77.20;;;;;;5051080;28;20833;-79
2022/07/16 07:54:44;;;;;;;2.47;0.65;;;20.40;77.70;;;;;;5051991;28;20039;-80
2022/07/16 07:57:09;;;;;;;1.77;0.50;;;20.40;77.10;;;;;;5069038;28;20367;-77
2022/07/16 07:59:35;;;;;;;5.35;1.30;;;20.50;76.80;;;;;;5051959;28;20032;-78
2022/07/16 08:02:00;;;;;;;3.20;0.95;;;20.50;78.00;;;;;;5069455;28;20104;-78
2022/07/16 08:04:26;;;;;;;2.72;0.50;;;20.50;77.00;;;;;;5069935;28;20029;-78
2022/07/16 08:06:51;;;;;;;3.75;0.60;;;20.40;77.00;;;;;;5059206;28;20091;-79
2022/07/16 08:09:17;;;;;;;0.98;0.47;;;20.30;78.50;;;;;;5068463;28;20501;-80
2022/07/16 08:11:42;;;;;;;0.88;0.45;;;20.20;77.60;;;;;;5067841;28;20025;-78
2022/07/16 08:14:08;;;;;;;1.10;0.52;;;20.20;77.40;;;;;;5068640;28;20135;-78
2022/07/16 08:16:34;;;;;;;4.57;0.65;;;20.20;77.70;;;;;;5069273;28;20021;-78
2022/07/16 08:19:00;;;;;;;1.33;0.40;;;20.20;77.30;;;;;;5068729;28;20028;-78
2022/07/16 08:21:26;;;;;;;2.67;0.60;;;20.20;77.30;;;;;;5072622;28;20474;-78
2022/07/16 08:26:36;;;;;;;1.75;0.50;;;20.30;77.60;;;;;;5072842;28;20036;-78
2022/07/16 08:29:01;;;;;;;1.08;0.52;;;20.30;77.70;;;;;;5055247;28;20032;-79
2022/07/16 08:31:27;;;;;;;1.67;0.60;;;20.20;77.40;;;;;;5072811;28;20099;-81
2022/07/16 08:33:53;;;;;;;0.80;0.40;;;20.20;79.70;;;;;;5073042;28;20104;-81
2022/07/16 08:36:19;;;;;;;2.53;0.70;;;20.10;79.80;;;;;;5054938;28;20028;-78
2022/07/16 08:38:44;;;;;;;1.63;0.70;;;20.00;80.60;;;;;;5055321;28;20104;-82
2022/07/16 08:41:10;;;;;;;1.85;1.00;;;19.90;81.10;;;;;;5072897;28;20478;-78
2022/07/16 08:43:37;;;;;;;3.63;0.70;;;19.80;84.10;;;;;;5073560;28;20108;-80
2022/07/16 08:46:03;;;;;;;2.50;0.80;;;19.60;85.00;;;;;;5072421;28;20474;-77
2022/07/16 08:48:30;;;;;;;1.85;0.77;;;19.40;87.50;;;;;;5054965;28;20043;-79
2022/07/16 08:50:58;;;;;;;2.10;0.75;;;19.30;88.40;;;;;;5053972;28;20462;-78
2022/07/16 08:53:24;;;;;;;2.53;0.88;;;19.10;90.20;;;;;;5055160;28;20024;-78
2022/07/16 08:55:52;;;;;;;1.83;0.80;;;19.00;89.20;;;;;;5054444;28;20477;-78
2022/07/16 08:58:18;;;;;;;2.53;0.80;;;19.00;90.50;;;;;;5054910;28;20074;-79
2022/07/16 09:00:45;;;;;;;2.50;1.30;;;18.90;90.30;;;;;;5072373;28;20107;-80
2022/07/16 09:03:13;;;;;;;2.15;0.90;;;18.90;90.20;;;;;;5072394;28;20474;-77
2022/07/16 09:05:39;;;;;;;2.55;1.00;;;19.00;91.80;;;;;;5054040;28;20029;-79
2022/07/16 09:08:05;;;;;;;3.17;1.58;;;19.00;92.50;;;;;;5072277;28;20451;-78
2022/07/16 09:10:36;;;;;;;5.80;1.10;;;18.90;92.90;;;;;;5072475;28;20039;-79
2022/07/16 09:13:02;;;;;;;3.63;1.05;;;18.90;93.50;;;;;;5054657;28;20783;-78
2022/07/16 09:15:32;;;;;;;5.88;1.55;;;18.80;93.20;;;;;;5054295;28;20021;-77
2022/07/16 09:18:09;;;;;;;2.22;1.08;;;18.80;93.20;;;;;;5054834;28;20112;-80
2022/07/16 09:20:35;;;;;;;3.03;0.95;;;18.80;93.30;;;;;;5072634;28;20035;-79
2022/07/16 09:23:02;;;;;;;2.78;0.85;;;18.80;93.30;;;;;;5071736;28;20069;-80
2022/07/16 09:25:28;;;;;;;1.88;0.80;;;18.60;93.00;;;;;;5053444;28;20081;-78
2022/07/16 09:27:58;;;;;;;2.53;1.13;;;18.40;93.30;;;;;;5072704;28;20099;-78
2022/07/16 09:30:25;;;;;;;1.30;0.80;;;18.40;93.50;;;;;;5072270;28;20036;-78
2022/07/16 09:32:50;;;;;;;1.88;0.73;;;18.40;93.60;;;;;;5071194;28;20158;-78
2022/07/16 09:35:18;;;;;;;1.42;0.85;;;18.40;94.10;;;;;;5072023;28;20131;-78
2022/07/16 09:37:46;;;;;;;7.22;0.70;;;18.50;93.20;;;;;;5053837;28;20021;-78
2022/07/16 09:40:13;;;;;;;0.95;0.70;;;18.70;92.90;;;;;;5053883;28;20047;-76
2022/07/16 09:42:39;;;;;;;2.97;0.70;;;18.80;93.00;;;;;;5052881;28;20078;-78
2022/07/16 09:45:07;;;;;;;2.00;0.70;;;19.00;93.40;;;;;;5071257;28;20033;-78
2022/07/16 09:47:33;;;;;;;2.58;0.73;;;19.30;92.60;;;;;;5048001;28;20029;-76
2022/07/16 09:49:59;;;;;;;0.68;0.50;;;19.50;91.90;;;;;;5069528;28;20032;-77
2022/07/16 09:52:32;;;;;;;2.90;0.60;;;19.70;91.20;;;;;;5068001;28;20485;-79
2022/07/16 09:54:58;;;;;;;1.05;0.70;;;19.80;90.60;;;;;;5082663;28;20052;-79
2022/07/16 09:57:29;;;;;;;3.72;0.98;;;19.80;90.10;;;;;;5056825;28;20037;-81
2022/07/16 09:59:57;;;;;;;1.38;0.70;;;19.80;89.80;;;;;;5059983;28;20549;-80
2022/07/16 10:02:23;;;;;;;1.90;0.70;;;19.80;89.20;;;;;;5056603;28;20108;-80
2022/07/16 10:04:50;;;;;;;4.80;0.85;;;19.90;90.00;;;;;;5065918;28;20513;-80
2022/07/16 10:07:17;;;;;;;3.67;0.68;;;20.10;89.60;;;;;;5053139;28;20028;-80
2022/07/16 10:09:42;;;;;;;1.20;0.57;;;20.40;89.30;;;;;;5057661;28;20040;-83
2022/07/16 10:12:13;;;;;;;2.53;0.50;;;20.60;87.60;;;;;;5045461;28;20031;-81
2022/07/16 10:14:47;;;;;;;3.40;0.85;;;20.80;86.60;;;;;;5078382;28;20067;-80
2022/07/16 10:17:17;;;;;;;1.30;0.70;;;20.90;86.60;;;;;;5038204;28;20024;-83
2022/07/16 10:19:44;;;;;;;0.90;0.55;;;20.90;86.50;;;;;;5046287;28;20204;-82
2022/07/16 10:22:26;;;;;;;1.40;0.40;;;20.80;86.00;;;;;;5067850;28;20047;-82
2022/07/16 10:24:54;;;;;;;1.42;0.57;;;20.80;85.90;;;;;;5070277;28;20110;-80
2022/07/16 10:27:30;;;;;;;4.78;0.50;;;20.70;86.50;;;;;;5053830;28;20032;-81
2022/07/16 10:30:14;;;;;;;0.80;0.40;;;20.70;85.40;;;;;;5052309;28;20037;-81
2022/07/16 10:33:10;;;;;;;0.85;0.40;;;20.90;85.20;;;;;;5053310;28;20116;-83
2022/07/16 10:35:45;;;;;;;0.65;0.30;;;21.10;85.80;;;;;;5068537;28;20028;-82
2022/07/16 10:38:14;;;;;;;0.52;0.30;;;21.50;83.70;;;;;;5070246;28;20362;-82
2022/07/16 10:40:42;;;;;;;4.32;0.50;;;21.90;82.00;;;;;;5043331;28;20021;-83
2022/07/16 10:43:23;;;;;;;0.38;0.22;;;22.20;80.80;;;;;;5064923;28;20082;-85
2022/07/16 10:45:57;;;;;;;0.77;0.40;;;22.50;80.40;;;;;;5049045;28;20032;-82
2022/07/16 10:48:25;;;;;;;0.70;0.47;;;22.90;78.60;;;;;;5050982;28;20043;-82
2022/07/16 10:51:11;;;;;;;1.85;0.40;;;23.20;78.80;;;;;;5058609;28;20032;-83
2022/07/16 10:53:58;;;;;;;1.27;0.32;;;23.70;79.30;;;;;;5050204;28;20043;-83
2022/07/16 10:56:45;;;;;;;0.68;0.40;;;23.80;74.50;;;;;;5065547;28;20034;-84
2022/07/16 10:59:25;;;;;;;0.82;0.20;;;24.00;77.30;;;;;;5061207;28;20048;-83
2022/07/16 11:01:53;;;;;;;0.45;0.30;;;24.20;73.70;;;;;;5046783;28;20107;-84
2022/07/16 11:04:49;;;;;;;0.65;0.40;;;24.40;69.30;;;;;;5049751;28;20128;-83
2022/07/16 11:07:17;;;;;;;1.58;0.40;;;24.50;68.90;;;;;;5040213;28;20039;-82
2022/07/16 11:09:45;;;;;;;0.85;0.40;;;24.40;68.30;;;;;;5054471;28;20478;-84
2022/07/16 11:12:20;;;;;;;1.05;0.35;;;24.10;66.90;;;;;;5036458;28;20041;-82
2022/07/16 11:14:48;;;;;;;3.13;0.38;;;23.80;66.60;;;;;;5067942;28;20140;-82
2022/07/16 11:17:15;;;;;;;0.70;0.28;;;23.70;66.20;;;;;;5065580;28;20028;-83
2022/07/16 11:19:50;;;;;;;0.30;0.20;;;23.60;68.80;;;;;;5050496;28;20123;-82
2022/07/16 11:22:21;;;;;;;0.60;0.40;;;23.60;65.10;;;;;;5084663;28;20024;-83
2022/07/16 11:24:50;;;;;;;1.30;0.50;;;23.60;65.80;;;;;;5050680;28;20102;-85
2022/07/16 11:27:16;;;;;;;0.90;0.50;;;23.80;65.70;;;;;;5050834;28;20126;-84
2022/07/16 11:29:42;;;;;;;0.55;0.30;;;24.10;64.00;;;;;;5054457;28;20059;-82
2022/07/16 11:32:15;;;;;;;0.80;0.40;;;24.30;62.30;;;;;;5072766;28;20028;-84
2022/07/16 11:34:40;;;;;;;2.65;0.40;;;24.40;61.10;;;;;;5054510;28;20538;-82
2022/07/16 11:37:06;;;;;;;0.52;0.30;;;24.40;63.20;;;;;;5043171;28;20035;-83
2022/07/16 11:39:31;;;;;;;1.30;0.40;;;24.50;59.30;;;;;;5068152;28;20112;-81
2022/07/16 11:41:58;;;;;;;0.65;0.40;;;24.70;60.20;;;;;;5074427;28;20052;-83
2022/07/16 11:44:29;;;;;;;0.47;0.38;;;24.90;59.50;;;;;;5073594;28;20060;-85
2022/07/16 11:47:00;;;;;;;3.92;0.70;;;24.90;59.50;;;;;;5076888;28;20549;-85
2022/07/16 11:49:33;;;;;;;9.63;0.63;;;24.90;59.30;;;;;;5068609;28;20116;-84
2022/07/16 11:52:01;;;;;;;0.70;0.40;;;24.70;59.70;;;;;;5085377;28;20482;-85
2022/07/16 11:54:27;;;;;;;1.17;0.40;;;24.60;58.50;;;;;;5070667;28;20037;-82
2022/07/16 11:56:54;;;;;;;1.58;0.50;;;24.30;58.40;;;;;;5055655;28;20051;-84
2022/07/16 11:59:22;;;;;;;0.50;0.40;;;24.20;59.60;;;;;;5079667;28;20047;-84
2022/07/16 12:02:03;;;;;;;2.50;0.50;;;24.20;59.50;;;;;;5076541;28;20087;-86
2022/07/16 12:04:41;;;;;;;2.50;0.70;;;24.30;58.30;;;;;;5071189;28;20052;-84
2022/07/16 12:07:10;;;;;;;1.17;0.50;;;24.20;58.80;;;;;;5073818;28;20051;-82
2022/07/16 12:09:42;;;;;;;0.95;0.40;;;24.20;58.70;;;;;;5078559;28;20425;-83
2022/07/16 12:12:19;;;;;;;0.70;0.30;;;24.30;58.70;;;;;;5055368;28;20036;-80
2022/07/16 12:15:05;;;;;;;0.90;0.35;;;24.30;58.80;;;;;;5087401;28;20029;-84
2022/07/16 12:17:31;;;;;;;1.27;0.47;;;24.30;58.20;;;;;;5082560;28;20036;-83
2022/07/16 12:20:14;;;;;;;0.32;0.30;;;24.20;58.60;;;;;;5079836;28;20033;-82
2022/07/16 12:22:54;;;;;;;;;;;24.00;59.50;;;;;;5067472;28;20043;-82
2022/07/16 12:25:30;;;;;;;2.10;0.70;;;23.70;59.60;;;;;;5080791;28;19976;-81
2022/07/16 12:28:02;;;;;;;1.80;0.45;;;23.40;64.70;;;;;;5059862;28;20037;-85
2022/07/16 12:30:43;;;;;;;1.38;0.50;;;23.20;67.30;;;;;;5057409;28;20063;-81
2022/07/16 12:33:15;;;;;;;1.85;0.68;;;22.90;69.20;;;;;;5057360;28;20062;-78
2022/07/16 12:36:05;;;;;;;2.75;0.65;;;22.80;70.90;;;;;;5077087;28;20036;-78
2022/07/16 12:41:36;;;;;;;1.75;0.40;;;23.20;70.60;;;;;;5072848;28;20402;-79
2022/07/16 12:44:04;;;;;;;1.08;0.50;;;23.20;69.90;;;;;;5070300;28;20024;-78
2022/07/16 12:46:38;;;;;;;1.42;0.57;;;23.30;69.50;;;;;;5077487;28;20077;-79
2022/07/16 12:49:09;;;;;;;1.25;0.50;;;23.50;71.10;;;;;;5054335;28;20543;-81
2022/07/16 12:51:48;;;;;;;1.95;0.40;;;24.00;68.00;;;;;;5076068;28;20039;-78
2022/07/16 12:54:14;;;;;;;0.60;0.40;;;24.40;65.70;;;;;;5058189;28;20024;-81
2022/07/16 12:59:27;;;;;;;2.05;0.60;;;24.20;67.10;;;;;;5079186;28;20405;-77